sensor_id;sensor_type;location;lat;lon;timestamp;pressure;altitude;pressure_sealevel;temperature;humidity
16100;BME280;8154;50.830;12.082;2023-02-15T01:03:34;100803.66;;;23.74;30.74
16100;BME280;8154;50.830;12.082;2023-02-15T01:06:02;100815.16;;;23.75;30.60
16100;BME280;8154;50.830;12.082;2023-02-15T01:08:28;100812.84;;;23.80;30.44
16100;BME280;8154;50.830;12.082;2023-02-15T01:10:55;100812.84;;;23.80;30.42
16100;BME280;8154;50.830;12.082;2023-02-15T01:13:21;100814.50;;;23.81;30.44
16100;BME280;8154;50.830;12.082;2023-02-15T01:15:54;100811.03;;;23.80;30.45
16100;BME280;8154;50.830;12.082;2023-02-15T01:18:21;100807.16;;;23.75;30.77
16100;BME280;8154;50.830;12.082;2023-02-15T01:20:48;100810.84;;;23.74;30.56
16100;BME280;8154;50.830;12.082;2023-02-15T01:23:15;100808.50;;;23.79;30.43
16100;BME280;8154;50.830;12.082;2023-02-15T01:25:42;100805.00;;;23.78;30.65
16100;BME280;8154;50.830;12.082;2023-02-15T01:28:09;100793.66;;;23.68;30.53
16100;BME280;8154;50.830;12.082;2023-02-15T01:30:35;100807.50;;;23.72;30.79
16100;BME280;8154;50.830;12.082;2023-02-15T01:33:02;100792.16;;;23.74;30.70
16100;BME280;8154;50.830;12.082;2023-02-15T01:35:29;100804.00;;;23.79;30.43
16100;BME280;8154;50.830;12.082;2023-02-15T01:37:56;100800.16;;;23.82;30.55
16100;BME280;8154;50.830;12.082;2023-02-15T01:40:24;100794.84;;;23.82;30.41
16100;BME280;8154;50.830;12.082;2023-02-15T01:42:54;100792.97;;;23.82;30.34
16100;BME280;8154;50.830;12.082;2023-02-15T01:45:32;100785.13;;;23.81;30.34
16100;BME280;8154;50.830;12.082;2023-02-15T01:48:05;100784.13;;;23.74;30.43
16100;BME280;8154;50.830;12.082;2023-02-15T01:50:41;100788.97;;;23.70;30.45
16100;BME280;8154;50.830;12.082;2023-02-15T01:56:02;100780.28;;;23.76;30.63
16100;BME280;8154;50.830;12.082;2023-02-15T01:58:31;100766.78;;;23.78;30.47
16100;BME280;8154;50.830;12.082;2023-02-15T02:01:00;100765.13;;;23.77;30.44
16100;BME280;8154;50.830;12.082;2023-02-15T02:06:13;100752.59;;;23.69;30.71
16100;BME280;8154;50.830;12.082;2023-02-15T02:08:40;100744.94;;;23.74;30.61
16100;BME280;8154;50.830;12.082;2023-02-15T02:11:15;100752.78;;;23.76;30.63
16100;BME280;8154;50.830;12.082;2023-02-15T02:13:43;100743.94;;;23.75;30.54
16100;BME280;8154;50.830;12.082;2023-02-15T02:30:32;100729.41;;;23.78;30.28
16100;BME280;8154;50.830;12.082;2023-02-15T02:36:30;100727.75;;;23.77;30.29
16100;BME280;8154;50.830;12.082;2023-02-15T02:41:58;100725.75;;;23.71;30.57
16100;BME280;8154;50.830;12.082;2023-02-15T03:43:30;100700.38;;;23.59;30.49
16100;BME280;8154;50.830;12.082;2023-02-15T03:46:05;100693.19;;;23.59;30.66
16100;BME280;8154;50.830;12.082;2023-02-15T03:48:38;100703.19;;;23.65;30.42
16100;BME280;8154;50.830;12.082;2023-02-15T03:51:10;100701.72;;;23.71;30.55
16100;BME280;8154;50.830;12.082;2023-02-15T03:53:57;100701.72;;;23.71;30.31
16100;BME280;8154;50.830;12.082;2023-02-15T03:56:24;100708.25;;;23.68;30.35
16100;BME280;8154;50.830;12.082;2023-02-15T03:58:50;100703.72;;;23.61;30.36
16100;BME280;8154;50.830;12.082;2023-02-15T04:01:44;100703.72;;;23.61;30.51
16100;BME280;8154;50.830;12.082;2023-02-15T04:04:30;100704.88;;;23.66;30.59
16100;BME280;8154;50.830;12.082;2023-02-15T04:06:58;100701.88;;;23.69;30.35
16100;BME280;8154;50.830;12.082;2023-02-15T04:09:24;100696.56;;;23.69;30.32
16100;BME280;8154;50.830;12.082;2023-02-15T04:12:09;100693.03;;;23.69;30.50
16100;BME280;8154;50.830;12.082;2023-02-15T04:14:35;100693.72;;;23.71;30.53
16100;BME280;8154;50.830;12.082;2023-02-15T04:17:20;100689.38;;;23.70;30.54
16100;BME280;8154;50.830;12.082;2023-02-15T04:19:47;100690.19;;;23.70;30.67
16100;BME280;8154;50.830;12.082;2023-02-15T04:22:32;100684.03;;;23.62;30.67
16100;BME280;8154;50.830;12.082;2023-02-15T04:25:17;100681.88;;;23.57;30.70
16100;BME280;8154;50.830;12.082;2023-02-15T04:27:47;100684.84;;;23.62;30.41
16100;BME280;8154;50.830;12.082;2023-02-15T04:30:15;100689.72;;;23.67;30.53
16100;BME280;8154;50.830;12.082;2023-02-15T04:32:43;100689.56;;;23.68;30.27
16100;BME280;8154;50.830;12.082;2023-02-15T04:35:10;100688.53;;;23.69;30.54
16100;BME280;8154;50.830;12.082;2023-02-15T04:37:38;100685.88;;;23.61;30.64
16100;BME280;8154;50.830;12.082;2023-02-15T04:40:07;100683.69;;;23.57;30.74
16100;BME280;8154;50.830;12.082;2023-02-15T04:42:34;100690.38;;;23.61;30.65
16100;BME280;8154;50.830;12.082;2023-02-15T06:44:53;100649.00;;;23.65;30.62
16100;BME280;8154;50.830;12.082;2023-02-15T06:47:19;100647.31;;;23.64;30.31
16100;BME280;8154;50.830;12.082;2023-02-15T06:49:45;100642.81;;;23.64;30.53
16100;BME280;8154;50.830;12.082;2023-02-15T06:52:12;100647.16;;;23.65;30.53
16100;BME280;8154;50.830;12.082;2023-02-15T06:54:43;100649.81;;;23.65;30.52
16100;BME280;8154;50.830;12.082;2023-02-15T06:57:10;100653.84;;;23.61;30.39
16100;BME280;8154;50.830;12.082;2023-02-15T06:59:36;100645.66;;;23.55;30.62
16100;BME280;8154;50.830;12.082;2023-02-15T07:02:02;100637.31;;;23.58;30.68
16100;BME280;8154;50.830;12.082;2023-02-15T07:04:28;100651.16;;;23.61;30.41
16100;BME280;8154;50.830;12.082;2023-02-15T07:06:57;100638.50;;;23.63;30.47
16100;BME280;8154;50.830;12.082;2023-02-15T07:09:23;100633.00;;;23.65;30.25
16100;BME280;8154;50.830;12.082;2023-02-15T07:11:50;100645.31;;;23.66;30.44
16100;BME280;8154;50.830;12.082;2023-02-15T07:14:35;100631.81;;;23.67;30.14
16100;BME280;8154;50.830;12.082;2023-02-15T07:17:02;100634.97;;;23.63;30.20
16100;BME280;8154;50.830;12.082;2023-02-15T07:19:28;100629.31;;;23.58;30.57
16100;BME280;8154;50.830;12.082;2023-02-15T07:21:54;100630.00;;;23.60;30.38
16100;BME280;8154;50.830;12.082;2023-02-15T07:24:21;100628.63;;;23.64;30.19
16100;BME280;8154;50.830;12.082;2023-02-15T07:26:47;100622.16;;;23.66;30.33
16100;BME280;8154;50.830;12.082;2023-02-15T07:29:14;100625.66;;;23.67;30.35
16100;BME280;8154;50.830;12.082;2023-02-15T07:31:42;100621.31;;;23.66;30.31
16100;BME280;8154;50.830;12.082;2023-02-15T07:34:12;100620.31;;;23.67;30.29
16100;BME280;8154;50.830;12.082;2023-02-15T07:36:38;100615.28;;;23.64;30.24
16100;BME280;8154;50.830;12.082;2023-02-15T07:39:04;100620.31;;;23.59;30.26
16100;BME280;8154;50.830;12.082;2023-02-15T07:41:31;100615.78;;;23.59;30.35
16100;BME280;8154;50.830;12.082;2023-02-15T07:43:59;100610.13;;;23.62;30.20
16100;BME280;8154;50.830;12.082;2023-02-15T08:45:09;100538.38;;;23.75;30.07
16100;BME280;8154;50.830;12.082;2023-02-15T08:47:37;100532.19;;;23.75;30.12
16100;BME280;8154;50.830;12.082;2023-02-15T08:50:04;100540.38;;;23.73;30.09
16100;BME280;8154;50.830;12.082;2023-02-15T08:52:31;100534.84;;;23.75;30.13
16100;BME280;8154;50.830;12.082;2023-02-15T08:54:59;100524.00;;;23.76;30.13
16100;BME280;8154;50.830;12.082;2023-02-15T08:57:26;100524.16;;;23.83;30.03
16100;BME280;8154;50.830;12.082;2023-02-15T08:59:54;100519.81;;;23.90;29.78
16100;BME280;8154;50.830;12.082;2023-02-15T09:02:21;100530.66;;;23.96;30.00
16100;BME280;8154;50.830;12.082;2023-02-15T09:04:47;100522.97;;;24.01;29.97
16100;BME280;8154;50.830;12.082;2023-02-15T09:07:15;100516.28;;;24.05;29.91
16100;BME280;8154;50.830;12.082;2023-02-15T09:09:42;100517.75;;;24.08;29.58
16100;BME280;8154;50.830;12.082;2023-02-15T09:12:09;100523.75;;;24.10;29.85
16100;BME280;8154;50.830;12.082;2023-02-15T09:14:36;100518.25;;;24.11;29.69
16100;BME280;8154;50.830;12.082;2023-02-15T09:17:02;100525.25;;;24.12;29.55
16100;BME280;8154;50.830;12.082;2023-02-15T09:19:28;100518.72;;;24.15;29.91
16100;BME280;8154;50.830;12.082;2023-02-15T09:21:54;100521.03;;;24.18;30.06
16100;BME280;8154;50.830;12.082;2023-02-15T09:24:22;100518.84;;;24.21;29.74
16100;BME280;8154;50.830;12.082;2023-02-15T09:26:48;100529.38;;;24.23;29.74
16100;BME280;8154;50.830;12.082;2023-02-15T09:29:17;100529.00;;;24.26;29.78
16100;BME280;8154;50.830;12.082;2023-02-15T09:31:49;100533.38;;;24.27;29.62
16100;BME280;8154;50.830;12.082;2023-02-15T09:34:19;100531.69;;;24.26;29.67
16100;BME280;8154;50.830;12.082;2023-02-15T09:36:46;100536.50;;;24.30;30.00
16100;BME280;8154;50.830;12.082;2023-02-15T09:39:17;100528.47;;;24.30;29.66
16100;BME280;8154;50.830;12.082;2023-02-15T09:45:49;100521.66;;;24.28;29.67
16100;BME280;8154;50.830;12.082;2023-02-15T09:50:25;100523.47;;;24.36;29.92
16100;BME280;8154;50.830;12.082;2023-02-15T09:53:08;100529.47;;;24.38;29.78
16100;BME280;8154;50.830;12.082;2023-02-15T10:03:42;100523.94;;;24.39;29.93
16100;BME280;8154;50.830;12.082;2023-02-15T10:14:31;100520.25;;;24.40;29.92
16100;BME280;8154;50.830;12.082;2023-02-15T10:17:34;100516.41;;;24.43;29.67
16100;BME280;8154;50.830;12.082;2023-02-15T10:26:07;100510.22;;;24.42;29.62
16100;BME280;8154;50.830;12.082;2023-02-15T10:28:51;100504.03;;;24.42;29.81
16100;BME280;8154;50.830;12.082;2023-02-15T10:31:31;100509.56;;;24.40;29.91
16100;BME280;8154;50.830;12.082;2023-02-15T10:39:29;100502.75;;;24.38;29.72
16100;BME280;8154;50.830;12.082;2023-02-15T10:50:46;100490.53;;;24.35;29.88
16100;BME280;8154;50.830;12.082;2023-02-15T10:53:35;100492.41;;;24.35;29.75
16100;BME280;8154;50.830;12.082;2023-02-15T10:56:24;100492.41;;;24.35;29.85
16100;BME280;8154;50.830;12.082;2023-02-15T11:06:37;100467.69;;;24.33;29.73
16100;BME280;8154;50.830;12.082;2023-02-15T11:09:12;100467.69;;;24.33;30.00
16100;BME280;8154;50.830;12.082;2023-02-15T11:11:41;100469.53;;;24.32;30.07
16100;BME280;8154;50.830;12.082;2023-02-15T11:14:20;100465.22;;;24.31;29.84
16100;BME280;8154;50.830;12.082;2023-02-15T11:16:52;100457.38;;;24.29;29.77
16100;BME280;8154;50.830;12.082;2023-02-15T11:19:24;100454.69;;;24.29;29.78
16100;BME280;8154;50.830;12.082;2023-02-15T11:21:59;100454.69;;;24.29;30.02
16100;BME280;8154;50.830;12.082;2023-02-15T11:24:29;100448.69;;;24.27;30.12
16100;BME280;8154;50.830;12.082;2023-02-15T11:27:19;100451.34;;;24.27;29.82
16100;BME280;8154;50.830;12.082;2023-02-15T11:29:58;100453.03;;;24.28;29.99
16100;BME280;8154;50.830;12.082;2023-02-15T11:33:01;100451.53;;;24.26;30.01
16100;BME280;8154;50.830;12.082;2023-02-15T11:35:27;100446.84;;;24.28;30.10
16100;BME280;8154;50.830;12.082;2023-02-15T11:38:03;100436.16;;;24.28;29.82
16100;BME280;8154;50.830;12.082;2023-02-15T11:43:15;100432.66;;;24.27;29.75
16100;BME280;8154;50.830;12.082;2023-02-15T11:45:45;100431.19;;;24.25;29.81
16100;BME280;8154;50.830;12.082;2023-02-15T12:50:23;100377.97;;;24.15;30.36
16100;BME280;8154;50.830;12.082;2023-02-15T12:53:08;100369.13;;;24.15;30.02
16100;BME280;8154;50.830;12.082;2023-02-15T12:55:35;100367.28;;;24.15;30.34
16100;BME280;8154;50.830;12.082;2023-02-15T12:58:17;100364.63;;;24.15;30.38
16100;BME280;8154;50.830;12.082;2023-02-15T13:00:44;100365.47;;;24.16;30.27
16100;BME280;8154;50.830;12.082;2023-02-15T13:03:20;100357.81;;;24.13;30.14
16100;BME280;8154;50.830;12.082;2023-02-15T13:05:50;100360.94;;;24.16;30.30
16100;BME280;8154;50.830;12.082;2023-02-15T13:08:21;100362.97;;;24.14;30.25
16100;BME280;8154;50.830;12.082;2023-02-15T13:11:00;100357.47;;;24.16;30.16
16100;BME280;8154;50.830;12.082;2023-02-15T13:13:33;100353.09;;;24.15;30.25
16100;BME280;8154;50.830;12.082;2023-02-15T13:16:04;100354.97;;;24.14;30.00
16100;BME280;8154;50.830;12.082;2023-02-15T13:18:36;100348.78;;;24.14;29.96
16100;BME280;8154;50.830;12.082;2023-02-15T13:21:12;100362.81;;;24.16;30.29
16100;BME280;8154;50.830;12.082;2023-02-15T13:23:43;100355.78;;;24.15;30.27
16100;BME280;8154;50.830;12.082;2023-02-15T13:26:15;100358.28;;;24.16;30.11
16100;BME280;8154;50.830;12.082;2023-02-15T13:28:46;100357.63;;;24.14;30.20
16100;BME280;8154;50.830;12.082;2023-02-15T13:31:17;100348.78;;;24.14;30.24
16100;BME280;8154;50.830;12.082;2023-02-15T13:33:54;100349.81;;;24.13;30.37
16100;BME280;8154;50.830;12.082;2023-02-15T13:42:23;100351.44;;;24.14;30.11
16100;BME280;8154;50.830;12.082;2023-02-15T15:50:18;100307.59;;;24.08;30.09
16100;BME280;8154;50.830;12.082;2023-02-15T15:52:55;100309.91;;;24.11;30.09
16100;BME280;8154;50.830;12.082;2023-02-15T15:55:25;100313.56;;;24.10;30.04
16100;BME280;8154;50.830;12.082;2023-02-15T15:58:01;100316.25;;;24.10;30.13
16100;BME280;8154;50.830;12.082;2023-02-15T16:00:49;100318.09;;;24.10;29.89
16100;BME280;8154;50.830;12.082;2023-02-15T16:03:25;100314.59;;;24.09;30.17
16100;BME280;8154;50.830;12.082;2023-02-15T16:05:53;100308.41;;;24.09;29.99
16100;BME280;8154;50.830;12.082;2023-02-15T16:08:31;100311.44;;;24.06;30.06
16100;BME280;8154;50.830;12.082;2023-02-15T16:10:58;100307.78;;;24.07;30.18
16100;BME280;8154;50.830;12.082;2023-02-15T16:13:25;100304.09;;;24.08;29.97
16100;BME280;8154;50.830;12.082;2023-02-15T16:15:54;100304.94;;;24.08;29.83
16100;BME280;8154;50.830;12.082;2023-02-15T16:18:23;100309.44;;;24.08;29.91
16100;BME280;8154;50.830;12.082;2023-02-15T16:20:57;100312.09;;;24.08;30.24
16100;BME280;8154;50.830;12.082;2023-02-15T16:28:53;100317.81;;;24.05;30.12
16100;BME280;8154;50.830;12.082;2023-02-15T16:31:22;100319.47;;;24.06;30.35
16100;BME280;8154;50.830;12.082;2023-02-15T16:33:52;100316.81;;;23.75;31.35
16100;BME280;8154;50.830;12.082;2023-02-15T16:36:22;100316.06;;;22.33;27.59
16100;BME280;8154;50.830;12.082;2023-02-15T16:41:21;100332.28;;;20.65;27.32
16100;BME280;8154;50.830;12.082;2023-02-15T16:43:51;100315.53;;;20.65;26.16
16100;BME280;8154;50.830;12.082;2023-02-15T16:46:29;100329.91;;;20.54;26.34
16100;BME280;8154;50.830;12.082;2023-02-15T20:50:40;100312.28;;;21.54;42.53
16100;BME280;8154;50.830;12.082;2023-02-15T20:53:09;100312.28;;;21.54;42.41
16100;BME280;8154;50.830;12.082;2023-02-15T20:55:36;100305.81;;;21.49;42.63
16100;BME280;8154;50.830;12.082;2023-02-15T21:00:44;100300.06;;;21.28;43.04
16100;BME280;8154;50.830;12.082;2023-02-15T21:03:11;100310.06;;;21.34;42.95
16100;BME280;8154;50.830;12.082;2023-02-15T21:05:39;100310.63;;;21.45;42.59
16100;BME280;8154;50.830;12.082;2023-02-15T21:08:16;100313.28;;;21.45;42.65
16100;BME280;8154;50.830;12.082;2023-02-15T21:10:46;100309.25;;;21.41;42.88
16100;BME280;8154;50.830;12.082;2023-02-15T21:13:26;100311.75;;;21.43;42.79
16100;BME280;8154;50.830;12.082;2023-02-15T21:15:55;100307.59;;;21.40;42.67
16100;BME280;8154;50.830;12.082;2023-02-15T21:18:26;100310.06;;;21.34;42.91
16100;BME280;8154;50.830;12.082;2023-02-15T21:20:59;100307.38;;;21.26;43.18
16100;BME280;8154;50.830;12.082;2023-02-15T21:23:33;100305.44;;;21.36;42.80
16100;BME280;8154;50.830;12.082;2023-02-15T21:26:00;100306.09;;;21.46;42.51
16100;BME280;8154;50.830;12.082;2023-02-15T21:28:28;100304.63;;;21.51;42.44
16100;BME280;8154;50.830;12.082;2023-02-15T21:30:56;100301.50;;;21.56;42.32
16100;BME280;8154;50.830;12.082;2023-02-15T21:33:24;100301.50;;;21.56;42.26
16100;BME280;8154;50.830;12.082;2023-02-15T21:35:55;100317.22;;;21.41;42.52
16100;BME280;8154;50.830;12.082;2023-02-15T21:38:24;100308.44;;;21.41;42.53
16100;BME280;8154;50.830;12.082;2023-02-15T21:40:54;100307.44;;;21.42;42.59
16100;BME280;8154;50.830;12.082;2023-02-15T21:43:40;100303.78;;;21.43;42.50
16100;BME280;8154;50.830;12.082;2023-02-15T21:46:25;100298.81;;;21.48;42.42
16100;BME280;8154;50.830;12.082;2023-02-15T21:49:07;100303.94;;;21.41;42.61
16100;BME280;8154;50.830;12.082;2023-02-15T21:51:33;100304.28;;;21.46;42.46
16100;BME280;8154;50.830;12.082;2023-02-15T21:54:19;100313.94;;;21.47;42.26
16100;BME280;8154;50.830;12.082;2023-02-15T21:56:46;100302.28;;;21.40;42.17
16100;BME280;8154;50.830;12.082;2023-02-15T21:59:17;100296.28;;;21.30;42.63
16100;BME280;8154;50.830;12.082;2023-02-15T22:01:48;100306.06;;;21.30;42.70
16100;BME280;8154;50.830;12.082;2023-02-15T22:04:26;100300.94;;;21.36;42.51
16100;BME280;8154;50.830;12.082;2023-02-15T22:06:53;100301.28;;;21.41;42.33
16100;BME280;8154;50.830;12.082;2023-02-15T22:09:21;100299.25;;;21.35;42.47
16100;BME280;8154;50.830;12.082;2023-02-15T22:11:50;100296.78;;;21.34;42.44
16100;BME280;8154;50.830;12.082;2023-02-15T22:14:36;100296.97;;;21.40;42.38
16100;BME280;8154;50.830;12.082;2023-02-15T22:17:13;100311.41;;;21.38;42.37
16100;BME280;8154;50.830;12.082;2023-02-15T22:19:41;100301.91;;;21.35;42.42
16100;BME280;8154;50.830;12.082;2023-02-15T22:22:07;100305.44;;;21.36;42.62
16100;BME280;8154;50.830;12.082;2023-02-15T22:24:34;100303.09;;;21.33;42.19
16100;BME280;8154;50.830;12.082;2023-02-15T22:27:00;100296.78;;;21.34;42.47
16100;BME280;8154;50.830;12.082;2023-02-15T22:29:27;100311.91;;;21.33;42.42
16100;BME280;8154;50.830;12.082;2023-02-15T22:31:53;100314.72;;;21.32;42.37
16100;BME280;8154;50.830;12.082;2023-02-15T22:34:30;100307.53;;;21.24;42.54
16100;BME280;8154;50.830;12.082;2023-02-15T22:36:57;100311.03;;;21.25;42.58
16100;BME280;8154;50.830;12.082;2023-02-15T22:39:24;100307.06;;;21.29;42.45
16100;BME280;8154;50.830;12.082;2023-02-15T22:41:51;100311.41;;;21.38;41.95
16100;BME280;8154;50.830;12.082;2023-02-15T22:44:23;100313.63;;;21.50;41.82
16100;BME280;8154;50.830;12.082;2023-02-15T22:46:51;100313.13;;;21.47;41.80
16100;BME280;8154;50.830;12.082;2023-02-15T22:49:18;100316.19;;;21.26;42.12
